createdAt,value
2022-10-04T00:04:29.698Z,100561.33
2022-10-04T00:10:15.713Z,100566.05
2022-10-04T00:15:27.517Z,100565.11
2022-10-04T00:20:51.111Z,100563.72
2022-10-04T00:25:58.231Z,100558.73
2022-10-04T00:31:25.194Z,100555.70
2022-10-04T00:36:38.100Z,100554.67
2022-10-04T00:41:48.060Z,100552.71
2022-10-04T00:46:52.851Z,100552.64
2022-10-04T00:52:15.338Z,100551.94
2022-10-04T00:57:26.162Z,100546.48
2022-10-04T01:02:40.391Z,100541.16
2022-10-04T01:07:50.355Z,100541.50
2022-10-04T01:13:04.814Z,100543.23
2022-10-04T01:18:18.575Z,100545.64
2022-10-04T01:23:51.988Z,100545.68
2022-10-04T01:29:03.677Z,100547.46
2022-10-04T01:34:07.519Z,100546.59
2022-10-04T01:39:11.099Z,100546.45
2022-10-04T01:44:56.251Z,100549.11
2022-10-04T01:50:03.071Z,100547.39
2022-10-04T01:55:16.051Z,100551.15
2022-10-04T02:00:22.293Z,100548.86
2022-10-04T02:05:33.897Z,100549.24
2022-10-04T02:10:43.456Z,100547.72
2022-10-04T02:15:47.985Z,100545.18
2022-10-04T02:20:52.011Z,100545.82
2022-10-04T02:25:55.736Z,100548.39
2022-10-04T02:31:18.235Z,100545.16
2022-10-04T02:36:25.012Z,100541.58
2022-10-04T02:41:35.961Z,100544.38
2022-10-04T02:46:50.663Z,100545.05
2022-10-04T02:52:09.113Z,100547.33
2022-10-04T02:57:21.184Z,100546.06
2022-10-04T03:02:30.605Z,100544.34
2022-10-04T03:07:35.712Z,100543.37
2022-10-04T03:12:45.586Z,100542.53
2022-10-04T03:17:54.272Z,100540.66
2022-10-04T03:22:59.940Z,100539.83
2022-10-04T03:28:05.854Z,100548.56
2022-10-04T03:33:12.579Z,100555.59
2022-10-04T03:38:16.497Z,100554.27
2022-10-04T03:43:24.371Z,100559.70
2022-10-04T03:48:36.303Z,100560.66
2022-10-04T03:53:54.361Z,100563.06
2022-10-04T03:59:14.414Z,100566.80
2022-10-04T04:04:36.110Z,100567.04
2022-10-04T04:09:46.203Z,100564.84
2022-10-04T04:14:54.961Z,100566.51
2022-10-04T04:20:06.899Z,100564.26
2022-10-04T04:25:16.669Z,100565.81
2022-10-04T04:30:20.074Z,100567.86
2022-10-04T04:35:41.430Z,100572.21
2022-10-04T04:40:47.190Z,100577.69
2022-10-04T04:46:08.449Z,100577.86
2022-10-04T04:51:21.942Z,100583.76
2022-10-04T04:56:29.883Z,100587.79
2022-10-04T05:01:45.070Z,100592.47
2022-10-04T05:06:50.192Z,100593.06
2022-10-04T05:11:58.966Z,100598.70
2022-10-04T05:17:02.496Z,100600.89
2022-10-04T05:22:18.281Z,100601.89
2022-10-04T05:27:43.034Z,100605.10
2022-10-04T05:32:59.280Z,100614.64
2022-10-04T05:39:03.779Z,100626.16
2022-10-04T05:44:37.318Z,100637.17
2022-10-04T05:49:44.172Z,100643.27
2022-10-04T05:54:47.601Z,100644.16
2022-10-04T06:00:13.485Z,100645.99
2022-10-04T06:05:55.326Z,100650.05
2022-10-04T06:11:23.142Z,100658.83
2022-10-04T06:16:48.662Z,100668.09
2022-10-04T06:22:16.757Z,100672.34
2022-10-04T06:27:43.111Z,100674.87
2022-10-04T06:33:17.829Z,100675.21
2022-10-04T06:38:33.116Z,100680.31
2022-10-04T06:43:40.477Z,100676.61
2022-10-04T06:48:48.112Z,100679.48
2022-10-04T06:53:51.490Z,100687.81
2022-10-04T06:59:39.396Z,100704.17
2022-10-04T07:05:08.613Z,100706.18
2022-10-04T07:10:32.419Z,100716.54
2022-10-04T07:15:52.833Z,100715.50
2022-10-04T07:21:09.858Z,100719.75
2022-10-04T07:26:42.333Z,100720.96
2022-10-04T07:31:48.233Z,100730.04
2022-10-04T07:36:58.776Z,100732.73
2022-10-04T07:42:49.326Z,100732.02
2022-10-04T07:48:17.463Z,100728.67
2022-10-04T07:53:34.834Z,100736.90
2022-10-04T07:59:07.398Z,100736.36
2022-10-04T08:04:18.754Z,100742.15
2022-10-04T08:09:39.082Z,100743.47
2022-10-04T08:15:09.530Z,100748.38
2022-10-04T08:20:42.020Z,100759.79
2022-10-04T08:25:57.858Z,100762.55
2022-10-04T08:31:11.871Z,100764.14
2022-10-04T08:36:18.175Z,100773.60
2022-10-04T08:41:34.115Z,100777.98
2022-10-04T08:46:56.851Z,100774.48
2022-10-04T08:52:12.269Z,100776.79
2022-10-04T08:57:54.057Z,100780.60
2022-10-04T09:03:09.379Z,100781.96
2022-10-04T09:08:31.510Z,100781.92
2022-10-04T09:13:47.844Z,100787.00
2022-10-04T09:18:52.894Z,100784.30
2022-10-04T09:24:14.961Z,100787.48
2022-10-04T09:29:48.231Z,100788.73
2022-10-04T09:35:18.256Z,100781.06
2022-10-04T09:41:02.323Z,100796.66
2022-10-04T09:46:20.855Z,100800.03
2022-10-04T09:51:48.527Z,100804.20
2022-10-04T09:57:10.806Z,100809.39
2022-10-04T10:02:35.259Z,100810.09
2022-10-04T10:08:16.066Z,100803.84
2022-10-04T10:13:40.573Z,100807.37
2022-10-04T10:18:59.181Z,100808.56
2022-10-04T10:24:36.123Z,100817.98
2022-10-04T10:29:59.830Z,100827.87
2022-10-04T10:35:45.387Z,100826.20
2022-10-04T10:41:36.148Z,100836.27
2022-10-04T10:46:58.729Z,100830.52
2022-10-04T10:52:25.978Z,100818.67
2022-10-04T10:58:08.099Z,100818.46
2022-10-04T11:03:50.526Z,100826.47
2022-10-04T11:09:29.338Z,100829.62
2022-10-04T11:14:49.568Z,100829.63
2022-10-04T11:20:24.659Z,100825.33
2022-10-04T11:26:00.194Z,100824.13
2022-10-04T11:31:13.331Z,100832.06
2022-10-04T11:36:33.237Z,100836.46
2022-10-04T11:41:45.676Z,100841.39
2022-10-04T11:47:21.972Z,100845.21
2022-10-04T11:52:57.932Z,100844.77
2022-10-04T11:58:16.429Z,100850.23
2022-10-04T12:03:37.983Z,100854.81
2022-10-04T12:09:06.325Z,100858.82
2022-10-04T12:14:43.165Z,100851.07
2022-10-04T12:19:58.339Z,100842.71
2022-10-04T12:25:43.788Z,100846.01
2022-10-04T12:31:08.592Z,100846.19
2022-10-04T12:36:31.433Z,100842.02
2022-10-04T12:41:35.007Z,100843.98
2022-10-04T12:46:57.810Z,100838.67
2022-10-04T12:52:20.141Z,100837.51
2022-10-04T12:57:23.636Z,100835.36
2022-10-04T13:02:51.487Z,100835.40
2022-10-04T13:08:18.066Z,100836.65
2022-10-04T13:13:37.151Z,100840.73
2022-10-04T13:19:18.886Z,100841.22
2022-10-04T13:25:02.759Z,100843.60
2022-10-04T13:30:40.746Z,100851.90
2022-10-04T13:35:54.893Z,100843.17
2022-10-04T13:41:19.136Z,100844.05
2022-10-04T13:46:25.378Z,100854.88
2022-10-04T13:51:48.284Z,100865.97
2022-10-04T13:57:21.819Z,100866.23
2022-10-04T14:02:48.224Z,100864.96
2022-10-04T14:08:07.672Z,100866.02
2022-10-04T14:13:30.105Z,100865.89
2022-10-04T14:19:11.758Z,100867.61
2022-10-04T14:24:42.785Z,100865.54
2022-10-04T14:30:11.115Z,100867.89
2022-10-04T14:35:35.348Z,100876.65
2022-10-04T14:41:07.878Z,100881.36
2022-10-04T14:46:20.173Z,100878.50
2022-10-04T14:52:05.460Z,100876.18
2022-10-04T14:57:20.801Z,100878.78
2022-10-04T15:02:28.783Z,100882.48
2022-10-04T15:07:39.316Z,100882.80
2022-10-04T15:13:12.280Z,100889.09
2022-10-04T15:18:31.452Z,100884.41
2022-10-04T15:23:43.580Z,100887.55
2022-10-04T15:28:49.923Z,100890.46
2022-10-04T15:34:25.830Z,100890.92
2022-10-04T15:39:40.141Z,100893.17
2022-10-04T15:45:18.594Z,100895.54
2022-10-04T15:50:31.105Z,100896.13
2022-10-04T15:55:38.232Z,100900.77
2022-10-04T16:01:22.984Z,100902.30
2022-10-04T16:06:33.652Z,100907.88
2022-10-04T16:12:06.625Z,100911.15
2022-10-04T16:17:19.875Z,100912.17
2022-10-04T16:22:34.417Z,100913.20
2022-10-04T16:27:47.234Z,100910.89
2022-10-04T16:34:01.314Z,100912.96
2022-10-04T16:40:20.185Z,100917.08
2022-10-04T16:46:04.999Z,100917.66
2022-10-04T16:51:56.772Z,100923.70
2022-10-04T16:57:08.326Z,100925.36
2022-10-04T17:02:54.283Z,100924.85
2022-10-04T17:08:17.894Z,100922.66
2022-10-04T17:13:27.368Z,100926.56
2022-10-04T17:18:55.797Z,100924.41
2022-10-04T17:24:17.329Z,100926.58
2022-10-04T17:29:38.798Z,100931.14
2022-10-04T17:34:59.890Z,100934.27
2022-10-04T17:40:14.917Z,100937.98
2022-10-04T17:45:39.336Z,100942.55
2022-10-04T17:51:16.597Z,100932.52
2022-10-04T17:56:33.326Z,100939.80
2022-10-04T18:01:46.827Z,100948.42
2022-10-04T18:07:14.039Z,100953.40
2022-10-04T18:12:32.559Z,100957.86
2022-10-04T18:17:50.838Z,100957.61
2022-10-04T18:22:59.846Z,100962.25
2022-10-04T18:28:08.289Z,100974.52
2022-10-04T18:33:26.172Z,100970.95
2022-10-04T18:38:41.997Z,100984.07
2022-10-04T18:44:16.845Z,100986.69
2022-10-04T18:49:26.757Z,100985.54
2022-10-04T18:54:48.604Z,100988.89
2022-10-04T19:00:53.892Z,100992.63
2022-10-04T19:06:19.078Z,100997.56
2022-10-04T19:11:41.145Z,101001.02
2022-10-04T19:17:45.139Z,100998.45
2022-10-04T19:23:13.311Z,100997.19
2022-10-04T19:28:30.032Z,100996.54
2022-10-04T19:34:10.852Z,100998.88
2022-10-04T19:39:44.391Z,100998.08
2022-10-04T19:45:27.590Z,100998.02
2022-10-04T19:50:43.793Z,101003.36
2022-10-04T19:56:01.012Z,101004.29
2022-10-04T20:01:17.781Z,101007.73
2022-10-04T20:06:30.434Z,101013.18
2022-10-04T20:11:49.833Z,101012.35
2022-10-04T20:17:03.897Z,101016.13
2022-10-04T20:22:35.842Z,101016.22
2022-10-04T20:27:45.629Z,101026.64
2022-10-04T20:32:52.219Z,101017.41
2022-10-04T20:38:30.487Z,101005.00
2022-10-04T20:43:27.970Z,101003.74
2022-10-04T20:48:38.484Z,101005.46
2022-10-04T20:53:48.262Z,101012.39
2022-10-04T20:58:55.701Z,101014.91
2022-10-04T21:04:33.403Z,101014.53
2022-10-04T21:09:39.092Z,101015.52
2022-10-04T21:15:08.638Z,101024.22
2022-10-04T21:20:52.363Z,101026.17
2022-10-04T21:26:28.649Z,101023.17
2022-10-04T21:31:35.353Z,101035.73
2022-10-04T21:36:44.755Z,101046.43
2022-10-04T21:41:51.688Z,101052.67
2022-10-04T21:46:58.618Z,101058.15
2022-10-04T21:52:02.880Z,101065.55
2022-10-04T21:57:08.023Z,101065.02
2022-10-04T22:02:12.496Z,101077.02
2022-10-04T22:07:16.268Z,101074.47
2022-10-04T22:12:27.393Z,101080.80
2022-10-04T22:17:45.829Z,101080.98
2022-10-04T22:22:52.835Z,101076.48
2022-10-04T22:27:56.717Z,101076.43
2022-10-04T22:33:01.894Z,101081.15
2022-10-04T22:38:05.760Z,101077.41
2022-10-04T22:43:13.471Z,101070.99
2022-10-04T22:48:19.001Z,101067.33
2022-10-04T22:53:29.122Z,101063.56
2022-10-04T22:58:32.302Z,101052.74
2022-10-04T23:03:35.810Z,101047.00
2022-10-04T23:08:39.029Z,101034.87
2022-10-04T23:13:45.082Z,101026.86
2022-10-04T23:19:01.900Z,101007.56
2022-10-04T23:24:21.234Z,101011.42
2022-10-04T23:29:28.382Z,101015.92
2022-10-04T23:34:36.914Z,101012.48
2022-10-04T23:39:40.650Z,101007.16
2022-10-04T23:44:44.062Z,100995.96
2022-10-04T23:49:49.865Z,100988.52
2022-10-04T23:54:54.675Z,100976.61
